Home > Products > Valid Products > MTR

000
SAUS41 KBOX 291001 COR
MTRMQE
METAR KMQE 290954Z AUTO 10007KT 04/01 A3012 RMK AO1 SLP212 T00440011





000
SAUS41 KBOX 290901 COR
MTRMQE
METAR KMQE 290854Z AUTO 12005KT 04/01 A3011 RMK AO1 SLP209 T00440006
51011





000
SAUS41 KBOX 290801 COR
MTRMQE
METAR KMQE 290754Z AUTO 11007KT 05/01 A3010 RMK AO1 SLP206 T00500006





000
SAUS41 KBOX 290701 COR
MTRMQE
METAR KMQE 290654Z AUTO 12006KT 05/00 A3008 RMK AO1 SLP200 T00500000





000
SAUS41 KBOX 290701 COR
MTRMQE
METAR KMQE 290654Z AUTO 12006KT 05/00 A3008 RMK AO1 SLP200 T00500000





000
SAUS41 KBOX 290601 COR
MTRMQE
METAR KMQE 290554Z AUTO 14004KT 06/00 A3007 RMK AO1 SLP196 T00560000
10072 20056 58000





000
SAUS41 KBOX 290601 COR
MTRMQE
METAR KMQE 290554Z AUTO 14004KT 06/00 A3007 RMK AO1 SLP196 T00560000
10072 20056 58000





000
SAUS41 KBOX 290501 COR
MTRMQE
METAR KMQE 290454Z AUTO 16006KT 06/01 A3008 RMK AO1 SLP199 T00610006
401500022





000
SAUS41 KBOX 290401 COR
MTRMQE
METAR KMQE 290354Z AUTO 15006KT 06/01 A3008 RMK AO1 SLP199 T00610006





000
SAUS41 KBOX 290301 COR
MTRMQE
METAR KMQE 290254Z AUTO 16006KT 07/00 A3007 RMK AO1 SLP197 T00670000
51016





000
SAUS41 KBOX 290201 COR
MTRMQE
METAR KMQE 290154Z AUTO 18009KT 07/M01 A3007 RMK AO1 SLP195
T00671006





000
SAUS41 KBOX 290101 COR
MTRMQE
METAR KMQE 290054Z AUTO 18011KT 07/M01 A3005 RMK AO1 SLP189
T00671006





000
SAUS41 KBOX 290001 COR
MTRMQE
METAR KMQE 282354Z AUTO 17012G20KT 07/M02 A3003 RMK AO1 SLP181
T00721017 10150 20072 51014





000
SAUS41 KBOX 282301 COR
MTRMQE
METAR KMQE 282254Z AUTO 18014G21KT 08/M01 A3002 RMK AO1 SLP178
T00831011





000
SAUS41 KBOX 282202 COR
MTRMQE
METAR KMQE 282154Z AUTO 13009G16KT 09/M05 A3000 RMK AO1 SLP174
T00891050





000
SAUS41 KBOX 282101 COR
MTRMQE
METAR KMQE 282054Z AUTO 13011G18KT 11/M06 A2999 RMK AO1 SLP168
T01061061 55008





000
SAUS41 KBOX 282001 COR
MTRMQE
METAR KMQE 281954Z AUTO VRB06KT 14/M07 A2997 RMK AO1 SLP161
T01391072





000
SAUS41 KBOX 281901 COR
MTRMQE
METAR KMQE 281854Z AUTO VRB06KT 14/M08 A2999 RMK AO1 SLP168
T01391078





000
SAUS41 KBOX 281901 COR
MTRMQE
METAR KMQE 281854Z AUTO VRB06KT 14/M08 A2999 RMK AO1 SLP168
T01391078





000
SAUS41 KBOX 281801 COR
MTRMQE
METAR KMQE 281754Z AUTO 00000KT 12/M09 A3001 RMK AO1 SLP175
T01221094 10133 20061 58008





000
SAUS41 KBOX 281701 COR
MTRMQE
METAR KMQE 281654Z AUTO VRB05KT 12/M10 A3002 RMK AO1 SLP178
T01171100





000
SAUS41 KBOX 281601 COR
MTRMQE
METAR KMQE 281554Z AUTO 32008KT 280V360 11/M09 A3003 RMK AO1 SLP181
T01111094





000
SAUS41 KBOX 281455
MTRMQE
METAR KMQE 281454Z AUTO VRB06KT 10/M10 A3004 RMK AO1 SLP184
T01001100 50002





000
SAUS41 KBOX 281355
MTRMQE
METAR KMQE 281354Z AUTO 32009KT 290V360 08/M11 A3004 RMK AO1 SLP186
T00831106





000
SAUS41 KBOX 281255
MTRMQE
METAR KMQE 281254Z AUTO VRB06KT 08/M11 A3004 RMK AO1 SLP184
T00781106





000
SAUS41 KBOX 281155
MTRMQE
METAR KMQE 281154Z AUTO 33007KT 06/M10 A3003 RMK AO1 SLP183
T00611100 10061 20022 52024





000
SAUS41 KBOX 281055
MTRMQE
METAR KMQE 281054Z AUTO 33006KT 03/M10 A3001 RMK AO1 SLP176
T00331100





000
SAUS41 KBOX 281055
MTRMQE
METAR KMQE 281054Z AUTO 33006KT 03/M10 A3001 RMK AO1 SLP176
T00331100





000
SAUS41 KBOX 280955
MTRMQE
METAR KMQE 280954Z AUTO 33008KT 02/M10 A2998 RMK AO1 SLP165
T00221100





000
SAUS41 KBOX 280955
MTRMQE
METAR KMQE 280954Z AUTO 33008KT 02/M10 A2998 RMK AO1 SLP165
T00221100





000
SAUS41 KBOX 280855
MTRMQE
METAR KMQE 280854Z AUTO 35009KT 03/M10 A2996 RMK AO1 SLP157
T00331100 53021





000
SAUS41 KBOX 280755
MTRMQE
METAR KMQE 280754Z AUTO 35008KT 03/M09 A2993 RMK AO1 SLP148
T00331094





000
SAUS41 KBOX 280755
MTRMQE
METAR KMQE 280754Z AUTO 35008KT 03/M09 A2993 RMK AO1 SLP148
T00331094





000
SAUS41 KBOX 280655
MTRMQE
METAR KMQE 280654Z AUTO 35011KT 05/M09 A2991 RMK AO1 SLP140
T00501089





000
SAUS41 KBOX 280655
MTRMQE
METAR KMQE 280654Z AUTO 35011KT 05/M09 A2991 RMK AO1 SLP140
T00501089





000
SAUS41 KBOX 280555
MTRMQE
METAR KMQE 280554Z AUTO 01012G16KT 06/M07 A2989 RMK AO1 SLP136
T00561072 10094 20056 51018





000
SAUS41 KBOX 280455
MTRMQE
METAR KMQE 280454Z AUTO 36010G18KT 07/M03 A2989 RMK AO1 SLP135
T00721033 401560000





000
SAUS41 KBOX 280455
MTRMQE
METAR KMQE 280454Z AUTO 36010G18KT 07/M03 A2989 RMK AO1 SLP135
T00721033 401560000





000
SAUS41 KBOX 280355
MTRMQE
METAR KMQE 280354Z AUTO 26011KT 07/02 A2986 RMK AO1 SLP125 T00670022





000
SAUS41 KBOX 280255
MTRMQE
METAR KMQE 280254Z AUTO 24010KT 07/02 A2984 RMK AO1 SLP118 T00720017
51021





000
SAUS41 KBOX 280155
MTRMQE
METAR KMQE 280154Z AUTO 22012KT 07/01 A2982 RMK AO1 SLP112 T00720011





000
SAUS41 KBOX 280055
MTRMQE
METAR KMQE 280054Z AUTO 20011KT 08/01 A2981 RMK AO1 SLP107 T00830011





000
SAUS41 KBOX 272355
MTRMQE
METAR KMQE 272354Z AUTO 20015G21KT 09/00 A2978 RMK AO1 SLP097
T00940000 10156 20094 58001





000
SAUS41 KBOX 272255
MTRMQE
METAR KMQE 272254Z AUTO 19014G20KT 11/00 A2977 RMK AO1 SLP097
T01060000





000
SAUS41 KBOX 272155
MTRMQE
METAR KMQE 272154Z AUTO 19016G21KT 12/01 A2979 RMK AO1 SLP101
T01220006





000
SAUS41 KBOX 272055
MTRMQE
METAR KMQE 272054Z AUTO 21012G20KT 15/M02 A2978 RMK AO1 SLP098
T01501022 56019





000
SAUS41 KBOX 272055
MTRMQE
METAR KMQE 272054Z AUTO 21012G20KT 15/M02 A2978 RMK AO1 SLP098
T01501022 56019





000
SAUS41 KBOX 271955
MTRMQE
METAR KMQE 271954Z AUTO 24009G18KT 200V270 15/M07 A2979 RMK AO1
SLP103 T01501067





000
SAUS41 KBOX 271855
MTRMQE
METAR KMQE 271854Z AUTO 27008KT 14/M06 A2982 RMK AO1 SLP111
T01441056





000
SAUS41 KBOX 271755
MTRMQE
METAR KMQE 271754Z AUTO 23005KT 13/M05 A2984 RMK AO1 SLP118
T01281050 10139 20028 56017





000
SAUS41 KBOX 271655
MTRMQE
METAR KMQE 271654Z AUTO VRB04KT 12/M06 A2985 RMK AO1 SLP123
T01171056





000
SAUS41 KBOX 271555
MTRMQE
METAR KMQE 271554Z AUTO 29006KT 12/M05 A2987 RMK AO1 SLP129
T01171050





000
SAUS41 KBOX 271456
MTRMQE
METAR KMQE 271454Z AUTO VRB06KT 09/M05 A2989 RMK AO1 SLP136
T00941050 50002





000
SAUS41 KBOX 271456
MTRMQE
METAR KMQE 271454Z AUTO VRB06KT 09/M05 A2989 RMK AO1 SLP136
T00941050 50002





000
SAUS41 KBOX 271355
MTRMQE
METAR KMQE 271354Z AUTO 31005KT 08/M03 A2989 RMK AO1 SLP138
T00781028





000
SAUS41 KBOX 271255
MTRMQE
METAR KMQE 271254Z AUTO 32005KT 06/00 A2990 RMK AO1 SLP140 T00560000





000
SAUS41 KBOX 271155
MTRMQE
METAR KMQE 271154Z AUTO 32007KT 03/01 A2988 RMK AO1 SLP135 70035
T00280011 10028 20000 51007





000
SAUS41 KBOX 271055
MTRMQE
METAR KMQE 271054Z AUTO 31009KT 01/01 A2988 RMK AO1 SLP135 T00060006





000
SAUS41 KBOX 270955
MTRMQE
METAR KMQE 270954Z AUTO 28008KT 01/00 A2987 RMK AO1 SLP133 T00060000





000
SAUS41 KBOX 270855
MTRMQE
METAR KMQE 270854Z AUTO 27009KT 00/00 A2986 RMK AO1 SLP128 T00000000
53010





000
SAUS41 KBOX 270755
MTRMQE
METAR KMQE 270754Z AUTO 27009KT 01/00 A2985 RMK AO1 SLP126 T00060000





000
SAUS41 KBOX 270755
MTRMQE
METAR KMQE 270754Z AUTO 27009KT 01/00 A2985 RMK AO1 SLP126 T00060000





000
SAUS41 KBOX 270655
MTRMQE
METAR KMQE 270654Z AUTO 25007KT 01/00 A2983 RMK AO1 SLP119 T00060000





000
SAUS41 KBOX 270555
MTRMQE
METAR KMQE 270554Z AUTO 26006KT 01/00 A2983 RMK AO1 SLP118 T00060000
10017 20006 58004





000
SAUS41 KBOX 270455
MTRMQE
METAR KMQE 270454Z AUTO 27006KT 01/00 A2985 RMK AO1 SLP124 T00110000
401110011





000
SAUS41 KBOX 270355
MTRMQE
METAR KMQE 270354Z AUTO 31005KT 01/01 A2985 RMK AO1 SLP125 T00110006





000
SAUS41 KBOX 270255
MTRMQE
METAR KMQE 270254Z AUTO VRB03KT 02/01 A2984 RMK AO1 SLP121 T00170011
51014





000
SAUS41 KBOX 270156
MTRMQE
METAR KMQE 270154Z AUTO 35004KT 01/01 A2984 RMK AO1 SLP119 T00110011





000
SAUS41 KBOX 270055
MTRMQE
METAR KMQE 270054Z AUTO 01004KT 01/01 A2983 RMK AO1 SLP117 T00110006





000
SAUS41 KBOX 270055
MTRMQE
METAR KMQE 270054Z AUTO 01004KT 01/01 A2983 RMK AO1 SLP117 T00110006





000
SAUS41 KBOX 262355
MTRMQE
METAR KMQE 262354Z AUTO 03007KT 01/01 A2980 RMK AO1 SLP107 60001
T00110011 10028 20011 51020





000
SAUS41 KBOX 262255
MTRMQE
METAR KMQE 262254Z AUTO 02007KT 02/02 A2979 RMK AO1 SLP104 T00170017





000
SAUS41 KBOX 262155
MTRMQE
METAR KMQE 262154Z AUTO 02006KT 02/02 A2978 RMK AO1 SLP100 T00220017





000
SAUS41 KBOX 262055
MTRMQE
METAR KMQE 262054Z AUTO 03010KT 02/02 A2974 RMK AO1 SLP086 60001
T00220017 51002





000
SAUS41 KBOX 262055
MTRMQE
METAR KMQE 262054Z AUTO 03010KT 02/02 A2974 RMK AO1 SLP086 60001
T00220017 51002





000
SAUS41 KBOX 261955
MTRMQE
METAR KMQE 261954Z AUTO 03007G18KT 360V060 02/02 A2974 RMK AO1
SLP084 P0001 T00220022





000
SAUS41 KBOX 261855
MTRMQE
METAR KMQE 261854Z AUTO 04009G19KT 02/02 A2974 RMK AO1 SLP085
T00220017





000
SAUS41 KBOX 261855
MTRMQE
METAR KMQE 261854Z AUTO 04009G19KT 02/02 A2974 RMK AO1 SLP085
T00220017





000
SAUS41 KBOX 261755
MTRMQE
METAR KMQE 261754Z AUTO 03010G18KT 02/02 A2973 RMK AO1 SLP082 P0006
60034 T00220022 10056 20022 56007





000
SAUS41 KBOX 261655
MTRMQE
METAR KMQE 261654Z AUTO 05011G18KT 02/02 A2974 RMK AO1 SLP083 P0018
T00220022





000
SAUS41 KBOX 261655
MTRMQE
METAR KMQE 261654Z AUTO 05011G18KT 02/02 A2974 RMK AO1 SLP083 P0018
T00220022





000
SAUS41 KBOX 261555
MTRMQE
METAR KMQE 261554Z AUTO 08014G23KT 03/02 A2971 RMK AO1 SLP074 P0007
T00280017





000
SAUS41 KBOX 261455
MTRMQE
METAR KMQE 261454Z AUTO 07013G17KT 03/01 A2976 RMK AO1 SLP090 P0003
60003 T00330011 58018





000
SAUS41 KBOX 261455
MTRMQE
METAR KMQE 261454Z AUTO 07013G17KT 03/01 A2976 RMK AO1 SLP090 P0003
60003 T00330011 58018





000
SAUS41 KBOX 261355
MTRMQE
METAR KMQE 261354Z AUTO 08015G27KT 05/M02 A2976 RMK AO1 PK WND
08027/1347 SLP089 T00501017





000
SAUS41 KBOX 261255
MTRMQE
METAR KMQE 261254Z AUTO 08015KT 05/M02 A2981 RMK AO1 PK WND
06028/1158 SLP107 T00501022





000
SAUS41 KBOX 261155
MTRMQE
METAR KMQE 261154Z AUTO 07016G23KT 06/M03 A2981 RMK AO1 PK WND
08027/1058 SLP107 T00561028 10100 20056 58019





000
SAUS41 KBOX 261055
MTRMQE
METAR KMQE 261054Z AUTO 08016G29KT 06/M03 A2983 RMK AO1 PK WND
08029/1047 SLP113 T00561033





    US Dept of Commerce
    National Oceanic and Atmospheric Administration
    National Weather Service
    1325 East West Highway
    Silver Spring, MD 20910
    Page Author: NWS Internet Services Team
Disclaimer
Information Quality
Credits
Glossary
Privacy Policy
Freedom of Information Act (FOIA)
About Us
Career Opportunities